sensor_id;sensor_type;location;lat;lon;timestamp;P1;durP1;ratioP1;P2;durP2;ratioP2
18867;SDS011;9563;49.240;9.088;2024-01-06T05:00:24;8.50;;;2.43;;
18867;SDS011;9563;49.240;9.088;2024-01-06T05:02:51;6.40;;;3.70;;
18867;SDS011;9563;49.240;9.088;2024-01-06T05:05:18;8.40;;;3.33;;
18867;SDS011;9563;49.240;9.088;2024-01-06T05:07:45;7.23;;;2.90;;
18867;SDS011;9563;49.240;9.088;2024-01-06T05:10:12;5.23;;;2.80;;
18867;SDS011;9563;49.240;9.088;2024-01-06T05:12:39;8.67;;;2.93;;
18867;SDS011;9563;49.240;9.088;2024-01-06T05:15:06;11.37;;;3.10;;
18867;SDS011;9563;49.240;9.088;2024-01-06T05:17:35;9.33;;;2.73;;
18867;SDS011;9563;49.240;9.088;2024-01-06T05:20:02;6.63;;;2.77;;
18867;SDS011;9563;49.240;9.088;2024-01-06T05:22:29;7.63;;;3.33;;
18867;SDS011;9563;49.240;9.088;2024-01-06T05:24:56;11.07;;;3.53;;
18867;SDS011;9563;49.240;9.088;2024-01-06T05:27:23;12.00;;;2.60;;
18867;SDS011;9563;49.240;9.088;2024-01-06T05:29:49;6.53;;;2.60;;
18867;SDS011;9563;49.240;9.088;2024-01-06T05:32:16;6.10;;;2.90;;
18867;SDS011;9563;49.240;9.088;2024-01-06T05:34:45;7.57;;;3.10;;
18867;SDS011;9563;49.240;9.088;2024-01-06T05:37:12;7.57;;;2.63;;
18867;SDS011;9563;49.240;9.088;2024-01-06T05:39:39;11.57;;;3.37;;
18867;SDS011;9563;49.240;9.088;2024-01-06T05:42:06;6.40;;;2.90;;
18867;SDS011;9563;49.240;9.088;2024-01-06T05:44:35;7.50;;;2.97;;
18867;SDS011;9563;49.240;9.088;2024-01-06T05:47:02;9.83;;;3.23;;
18867;SDS011;9563;49.240;9.088;2024-01-06T05:49:29;4.77;;;3.00;;
18867;SDS011;9563;49.240;9.088;2024-01-06T05:51:58;12.10;;;3.20;;
18867;SDS011;9563;49.240;9.088;2024-01-06T05:54:25;4.73;;;2.70;;
18867;SDS011;9563;49.240;9.088;2024-01-06T05:56:52;8.20;;;2.90;;
18867;SDS011;9563;49.240;9.088;2024-01-06T05:59:18;7.43;;;3.40;;
18867;SDS011;9563;49.240;9.088;2024-01-06T06:01:45;7.53;;;3.20;;
18867;SDS011;9563;49.240;9.088;2024-01-06T06:04:12;6.73;;;3.33;;
18867;SDS011;9563;49.240;9.088;2024-01-06T06:06:39;7.27;;;3.00;;
18867;SDS011;9563;49.240;9.088;2024-01-06T06:09:07;8.57;;;3.20;;
18867;SDS011;9563;49.240;9.088;2024-01-06T06:11:35;8.50;;;3.37;;
18867;SDS011;9563;49.240;9.088;2024-01-06T06:14:02;9.57;;;2.97;;
18867;SDS011;9563;49.240;9.088;2024-01-06T06:16:29;10.70;;;3.03;;
18867;SDS011;9563;49.240;9.088;2024-01-06T06:18:56;12.10;;;3.13;;
18867;SDS011;9563;49.240;9.088;2024-01-06T06:21:23;9.80;;;2.93;;
18867;SDS011;9563;49.240;9.088;2024-01-06T06:23:50;6.67;;;2.97;;
18867;SDS011;9563;49.240;9.088;2024-01-06T06:26:19;7.50;;;3.10;;
18867;SDS011;9563;49.240;9.088;2024-01-06T06:28:46;8.27;;;2.60;;
18867;SDS011;9563;49.240;9.088;2024-01-06T06:31:12;7.50;;;2.83;;
18867;SDS011;9563;49.240;9.088;2024-01-06T06:33:40;6.33;;;2.47;;
18867;SDS011;9563;49.240;9.088;2024-01-06T06:36:07;8.33;;;2.70;;
18867;SDS011;9563;49.240;9.088;2024-01-06T06:38:34;9.77;;;2.97;;
18867;SDS011;9563;49.240;9.088;2024-01-06T06:41:01;10.23;;;2.63;;
18867;SDS011;9563;49.240;9.088;2024-01-06T06:43:30;4.63;;;2.63;;
18867;SDS011;9563;49.240;9.088;2024-01-06T06:45:56;5.97;;;3.03;;
18867;SDS011;9563;49.240;9.088;2024-01-06T06:48:23;13.27;;;3.40;;
18867;SDS011;9563;49.240;9.088;2024-01-06T06:50:50;11.13;;;3.87;;
18867;SDS011;9563;49.240;9.088;2024-01-06T06:53:17;8.83;;;3.50;;
18867;SDS011;9563;49.240;9.088;2024-01-06T06:55:44;8.27;;;3.40;;
18867;SDS011;9563;49.240;9.088;2024-01-06T06:58:12;3.77;;;2.33;;
18867;SDS011;9563;49.240;9.088;2024-01-06T07:00:40;7.07;;;3.00;;
18867;SDS011;9563;49.240;9.088;2024-01-06T07:03:08;6.40;;;2.90;;
18867;SDS011;9563;49.240;9.088;2024-01-06T07:05:34;10.33;;;3.00;;
18867;SDS011;9563;49.240;9.088;2024-01-06T07:08:02;13.13;;;3.33;;
18867;SDS011;9563;49.240;9.088;2024-01-06T07:10:32;9.77;;;3.30;;
18867;SDS011;9563;49.240;9.088;2024-01-06T07:12:59;9.80;;;3.37;;
18867;SDS011;9563;49.240;9.088;2024-01-06T07:15:26;10.17;;;3.20;;
18867;SDS011;9563;49.240;9.088;2024-01-06T07:17:54;6.53;;;3.43;;
18867;SDS011;9563;49.240;9.088;2024-01-06T07:20:21;4.33;;;2.80;;
18867;SDS011;9563;49.240;9.088;2024-01-06T07:22:48;7.50;;;3.43;;
18867;SDS011;9563;49.240;9.088;2024-01-06T07:25:15;8.90;;;3.47;;
18867;SDS011;9563;49.240;9.088;2024-01-06T07:27:41;9.57;;;2.63;;
18867;SDS011;9563;49.240;9.088;2024-01-06T07:30:08;15.07;;;3.13;;
18867;SDS011;9563;49.240;9.088;2024-01-06T07:32:36;7.40;;;3.10;;
18867;SDS011;9563;49.240;9.088;2024-01-06T07:35:05;11.17;;;3.80;;
18867;SDS011;9563;49.240;9.088;2024-01-06T07:37:32;11.80;;;3.30;;
18867;SDS011;9563;49.240;9.088;2024-01-06T07:39:59;7.50;;;3.27;;
18867;SDS011;9563;49.240;9.088;2024-01-06T07:42:26;9.07;;;3.13;;
18867;SDS011;9563;49.240;9.088;2024-01-06T07:44:52;11.33;;;3.30;;
18867;SDS011;9563;49.240;9.088;2024-01-06T07:47:19;6.77;;;2.90;;
18867;SDS011;9563;49.240;9.088;2024-01-06T07:49:46;6.97;;;3.07;;
18867;SDS011;9563;49.240;9.088;2024-01-06T07:52:15;9.53;;;3.23;;
18867;SDS011;9563;49.240;9.088;2024-01-06T07:54:42;12.07;;;3.37;;
18867;SDS011;9563;49.240;9.088;2024-01-06T07:57:09;9.43;;;3.20;;
18867;SDS011;9563;49.240;9.088;2024-01-06T07:59:37;5.97;;;2.87;;
18867;SDS011;9563;49.240;9.088;2024-01-06T08:02:03;12.70;;;3.40;;
18867;SDS011;9563;49.240;9.088;2024-01-06T08:04:30;8.57;;;2.90;;
18867;SDS011;9563;49.240;9.088;2024-01-06T08:06:58;5.93;;;3.13;;
18867;SDS011;9563;49.240;9.088;2024-01-06T08:09:26;6.93;;;3.43;;
18867;SDS011;9563;49.240;9.088;2024-01-06T08:11:53;8.30;;;3.50;;
18867;SDS011;9563;49.240;9.088;2024-01-06T08:14:20;10.10;;;3.17;;
18867;SDS011;9563;49.240;9.088;2024-01-06T08:16:47;6.10;;;2.87;;
18867;SDS011;9563;49.240;9.088;2024-01-06T08:19:14;8.03;;;3.47;;
18867;SDS011;9563;49.240;9.088;2024-01-06T08:21:42;10.40;;;3.13;;
18867;SDS011;9563;49.240;9.088;2024-01-06T08:24:09;8.70;;;3.00;;
18867;SDS011;9563;49.240;9.088;2024-01-06T08:26:38;5.53;;;3.00;;
18867;SDS011;9563;49.240;9.088;2024-01-06T08:29:04;6.00;;;3.00;;
18867;SDS011;9563;49.240;9.088;2024-01-06T08:31:31;7.47;;;3.27;;
18867;SDS011;9563;49.240;9.088;2024-01-06T08:33:59;6.50;;;2.90;;
18867;SDS011;9563;49.240;9.088;2024-01-06T08:36:26;6.93;;;3.57;;
18867;SDS011;9563;49.240;9.088;2024-01-06T08:38:53;15.00;;;4.03;;
18867;SDS011;9563;49.240;9.088;2024-01-06T08:41:20;8.80;;;3.40;;
18867;SDS011;9563;49.240;9.088;2024-01-06T08:43:48;8.60;;;3.17;;
18867;SDS011;9563;49.240;9.088;2024-01-06T08:46:15;6.50;;;3.07;;
18867;SDS011;9563;49.240;9.088;2024-01-06T08:48:42;7.83;;;3.63;;
18867;SDS011;9563;49.240;9.088;2024-01-06T08:51:09;8.30;;;3.60;;
18867;SDS011;9563;49.240;9.088;2024-01-06T08:53:36;7.17;;;3.23;;
18867;SDS011;9563;49.240;9.088;2024-01-06T08:56:03;8.87;;;3.13;;
18867;SDS011;9563;49.240;9.088;2024-01-06T08:58:31;9.60;;;3.47;;
18867;SDS011;9563;49.240;9.088;2024-01-06T09:01:00;11.57;;;3.47;;
18867;SDS011;9563;49.240;9.088;2024-01-06T09:03:26;9.77;;;3.67;;
18867;SDS011;9563;49.240;9.088;2024-01-06T09:05:55;10.17;;;3.30;;
18867;SDS011;9563;49.240;9.088;2024-01-06T09:08:22;12.23;;;3.30;;
18867;SDS011;9563;49.240;9.088;2024-01-06T09:10:50;8.40;;;4.10;;
18867;SDS011;9563;49.240;9.088;2024-01-06T09:13:20;7.40;;;3.23;;
18867;SDS011;9563;49.240;9.088;2024-01-06T09:15:48;6.80;;;3.97;;
18867;SDS011;9563;49.240;9.088;2024-01-06T09:18:16;12.23;;;3.50;;
18867;SDS011;9563;49.240;9.088;2024-01-06T09:20:43;7.10;;;3.53;;
18867;SDS011;9563;49.240;9.088;2024-01-06T09:23:12;10.17;;;3.77;;
18867;SDS011;9563;49.240;9.088;2024-01-06T09:25:40;10.10;;;4.00;;
18867;SDS011;9563;49.240;9.088;2024-01-06T09:28:07;7.07;;;4.00;;
18867;SDS011;9563;49.240;9.088;2024-01-06T09:30:33;7.30;;;3.73;;
18867;SDS011;9563;49.240;9.088;2024-01-06T09:33:02;11.43;;;3.60;;
18867;SDS011;9563;49.240;9.088;2024-01-06T09:35:31;9.57;;;4.00;;
18867;SDS011;9563;49.240;9.088;2024-01-06T09:37:58;13.27;;;3.83;;
18867;SDS011;9563;49.240;9.088;2024-01-06T09:40:25;6.03;;;3.70;;
18867;SDS011;9563;49.240;9.088;2024-01-06T09:42:52;10.37;;;3.63;;
18867;SDS011;9563;49.240;9.088;2024-01-06T09:45:19;9.60;;;3.80;;
18867;SDS011;9563;49.240;9.088;2024-01-06T09:47:48;11.30;;;3.90;;
18867;SDS011;9563;49.240;9.088;2024-01-06T09:50:17;10.30;;;4.53;;
18867;SDS011;9563;49.240;9.088;2024-01-06T09:52:47;8.73;;;3.90;;
18867;SDS011;9563;49.240;9.088;2024-01-06T09:55:20;13.47;;;4.27;;
18867;SDS011;9563;49.240;9.088;2024-01-06T09:57:51;9.20;;;3.90;;
18867;SDS011;9563;49.240;9.088;2024-01-06T10:00:18;8.40;;;3.90;;
18867;SDS011;9563;49.240;9.088;2024-01-06T10:02:46;9.17;;;4.47;;
18867;SDS011;9563;49.240;9.088;2024-01-06T10:05:14;7.90;;;3.73;;
18867;SDS011;9563;49.240;9.088;2024-01-06T10:07:42;8.23;;;4.57;;
18867;SDS011;9563;49.240;9.088;2024-01-06T10:10:11;7.63;;;3.90;;
18867;SDS011;9563;49.240;9.088;2024-01-06T10:12:40;8.97;;;4.60;;
18867;SDS011;9563;49.240;9.088;2024-01-06T10:15:08;7.93;;;4.40;;
18867;SDS011;9563;49.240;9.088;2024-01-06T10:17:36;9.60;;;4.37;;
18867;SDS011;9563;49.240;9.088;2024-01-06T10:20:06;9.80;;;4.83;;
18867;SDS011;9563;49.240;9.088;2024-01-06T10:22:34;11.80;;;4.90;;
18867;SDS011;9563;49.240;9.088;2024-01-06T10:25:02;12.60;;;4.97;;
18867;SDS011;9563;49.240;9.088;2024-01-06T10:27:30;10.30;;;4.30;;
18867;SDS011;9563;49.240;9.088;2024-01-06T10:29:59;7.93;;;4.53;;
18867;SDS011;9563;49.240;9.088;2024-01-06T10:32:26;7.33;;;4.67;;
18867;SDS011;9563;49.240;9.088;2024-01-06T10:34:56;8.80;;;4.73;;
18867;SDS011;9563;49.240;9.088;2024-01-06T10:37:23;9.60;;;5.10;;
18867;SDS011;9563;49.240;9.088;2024-01-06T10:40:04;6.57;;;4.27;;
18867;SDS011;9563;49.240;9.088;2024-01-06T10:42:34;10.17;;;5.30;;
18867;SDS011;9563;49.240;9.088;2024-01-06T10:45:03;7.77;;;4.83;;
18867;SDS011;9563;49.240;9.088;2024-01-06T10:47:33;11.30;;;5.30;;
18867;SDS011;9563;49.240;9.088;2024-01-06T10:50:01;9.10;;;5.40;;
18867;SDS011;9563;49.240;9.088;2024-01-06T10:52:28;13.90;;;5.87;;
18867;SDS011;9563;49.240;9.088;2024-01-06T10:54:55;12.20;;;5.37;;
18867;SDS011;9563;49.240;9.088;2024-01-06T10:57:23;11.17;;;6.27;;
18867;SDS011;9563;49.240;9.088;2024-01-06T10:59:52;9.97;;;5.07;;
18867;SDS011;9563;49.240;9.088;2024-01-06T11:02:19;10.97;;;5.77;;
18867;SDS011;9563;49.240;9.088;2024-01-06T11:04:47;9.87;;;5.47;;
18867;SDS011;9563;49.240;9.088;2024-01-06T11:07:16;10.37;;;5.13;;
18867;SDS011;9563;49.240;9.088;2024-01-06T11:09:46;14.30;;;5.13;;
18867;SDS011;9563;49.240;9.088;2024-01-06T11:12:17;11.20;;;4.87;;
18867;SDS011;9563;49.240;9.088;2024-01-06T11:14:44;9.67;;;5.23;;
18867;SDS011;9563;49.240;9.088;2024-01-06T11:17:13;9.93;;;5.40;;
18867;SDS011;9563;49.240;9.088;2024-01-06T11:20:18;8.77;;;5.30;;
18867;SDS011;9563;49.240;9.088;2024-01-06T11:22:45;7.50;;;4.90;;
18867;SDS011;9563;49.240;9.088;2024-01-06T11:25:13;7.47;;;4.90;;
18867;SDS011;9563;49.240;9.088;2024-01-06T11:27:42;6.57;;;4.50;;
18867;SDS011;9563;49.240;9.088;2024-01-06T11:30:18;8.20;;;4.43;;
18867;SDS011;9563;49.240;9.088;2024-01-06T11:32:48;8.00;;;4.90;;
18867;SDS011;9563;49.240;9.088;2024-01-06T11:35:15;9.63;;;4.93;;
18867;SDS011;9563;49.240;9.088;2024-01-06T11:37:53;9.60;;;4.83;;
18867;SDS011;9563;49.240;9.088;2024-01-06T11:40:23;8.50;;;5.10;;
18867;SDS011;9563;49.240;9.088;2024-01-06T11:42:58;8.67;;;4.47;;
18867;SDS011;9563;49.240;9.088;2024-01-06T11:45:27;7.63;;;4.37;;
18867;SDS011;9563;49.240;9.088;2024-01-06T11:47:57;12.70;;;4.97;;
18867;SDS011;9563;49.240;9.088;2024-01-06T11:50:25;11.30;;;5.13;;
18867;SDS011;9563;49.240;9.088;2024-01-06T11:52:52;7.43;;;5.07;;
18867;SDS011;9563;49.240;9.088;2024-01-06T11:55:19;9.83;;;4.87;;
18867;SDS011;9563;49.240;9.088;2024-01-06T11:57:46;14.47;;;5.53;;
18867;SDS011;9563;49.240;9.088;2024-01-06T12:00:15;9.87;;;5.90;;
18867;SDS011;9563;49.240;9.088;2024-01-06T12:02:42;9.07;;;4.77;;
18867;SDS011;9563;49.240;9.088;2024-01-06T12:05:13;10.77;;;5.60;;
18867;SDS011;9563;49.240;9.088;2024-01-06T12:07:42;7.60;;;5.20;;
18867;SDS011;9563;49.240;9.088;2024-01-06T12:10:10;11.27;;;5.70;;
18867;SDS011;9563;49.240;9.088;2024-01-06T12:12:39;11.03;;;5.57;;
18867;SDS011;9563;49.240;9.088;2024-01-06T12:15:06;12.10;;;5.90;;
18867;SDS011;9563;49.240;9.088;2024-01-06T12:17:34;10.53;;;5.57;;
18867;SDS011;9563;49.240;9.088;2024-01-06T12:20:02;12.13;;;5.93;;
18867;SDS011;9563;49.240;9.088;2024-01-06T12:22:31;10.83;;;5.33;;
18867;SDS011;9563;49.240;9.088;2024-01-06T12:24:58;9.00;;;5.13;;
18867;SDS011;9563;49.240;9.088;2024-01-06T12:27:26;8.97;;;5.60;;
18867;SDS011;9563;49.240;9.088;2024-01-06T12:29:52;9.40;;;5.57;;
18867;SDS011;9563;49.240;9.088;2024-01-06T12:32:20;10.50;;;5.97;;
18867;SDS011;9563;49.240;9.088;2024-01-06T12:34:47;11.10;;;6.13;;
18867;SDS011;9563;49.240;9.088;2024-01-06T12:37:14;9.57;;;5.50;;
18867;SDS011;9563;49.240;9.088;2024-01-06T12:39:43;10.53;;;5.70;;
18867;SDS011;9563;49.240;9.088;2024-01-06T12:42:14;9.60;;;5.60;;
18867;SDS011;9563;49.240;9.088;2024-01-06T12:44:42;9.60;;;5.43;;
18867;SDS011;9563;49.240;9.088;2024-01-06T12:47:09;9.33;;;5.17;;
18867;SDS011;9563;49.240;9.088;2024-01-06T12:49:37;9.77;;;5.83;;
18867;SDS011;9563;49.240;9.088;2024-01-06T12:52:04;8.47;;;5.50;;
18867;SDS011;9563;49.240;9.088;2024-01-06T12:54:31;11.97;;;6.53;;
18867;SDS011;9563;49.240;9.088;2024-01-06T12:57:00;11.53;;;5.90;;
18867;SDS011;9563;49.240;9.088;2024-01-06T12:59:26;10.07;;;6.50;;
18867;SDS011;9563;49.240;9.088;2024-01-06T13:01:55;10.47;;;6.63;;
18867;SDS011;9563;49.240;9.088;2024-01-06T13:04:22;12.00;;;6.97;;
18867;SDS011;9563;49.240;9.088;2024-01-06T13:06:49;13.50;;;7.27;;
18867;SDS011;9563;49.240;9.088;2024-01-06T13:09:16;11.17;;;6.57;;
18867;SDS011;9563;49.240;9.088;2024-01-06T13:11:43;11.20;;;6.43;;
18867;SDS011;9563;49.240;9.088;2024-01-06T13:14:13;12.17;;;6.50;;
18867;SDS011;9563;49.240;9.088;2024-01-06T13:16:40;10.60;;;6.37;;
18867;SDS011;9563;49.240;9.088;2024-01-06T13:19:07;13.40;;;6.93;;
18867;SDS011;9563;49.240;9.088;2024-01-06T13:21:34;13.50;;;7.37;;
18867;SDS011;9563;49.240;9.088;2024-01-06T13:24:04;10.20;;;6.03;;
18867;SDS011;9563;49.240;9.088;2024-01-06T13:26:32;11.77;;;7.20;;
18867;SDS011;9563;49.240;9.088;2024-01-06T13:28:59;8.07;;;5.70;;
18867;SDS011;9563;49.240;9.088;2024-01-06T13:31:28;9.93;;;6.43;;
18867;SDS011;9563;49.240;9.088;2024-01-06T13:33:56;13.27;;;7.27;;
18867;SDS011;9563;49.240;9.088;2024-01-06T13:36:23;13.90;;;6.67;;
18867;SDS011;9563;49.240;9.088;2024-01-06T13:38:50;13.60;;;7.30;;
18867;SDS011;9563;49.240;9.088;2024-01-06T13:41:17;18.73;;;9.77;;
18867;SDS011;9563;49.240;9.088;2024-01-06T13:43:44;11.23;;;6.43;;
18867;SDS011;9563;49.240;9.088;2024-01-06T13:46:11;11.27;;;6.47;;
18867;SDS011;9563;49.240;9.088;2024-01-06T13:48:40;13.30;;;6.73;;
18867;SDS011;9563;49.240;9.088;2024-01-06T13:51:07;12.37;;;7.60;;
18867;SDS011;9563;49.240;9.088;2024-01-06T13:53:35;11.67;;;6.50;;
18867;SDS011;9563;49.240;9.088;2024-01-06T13:56:02;11.17;;;6.33;;
18867;SDS011;9563;49.240;9.088;2024-01-06T13:58:29;13.63;;;6.50;;
18867;SDS011;9563;49.240;9.088;2024-01-06T14:00:56;12.93;;;6.63;;
18867;SDS011;9563;49.240;9.088;2024-01-06T14:03:23;10.47;;;6.47;;
18867;SDS011;9563;49.240;9.088;2024-01-06T14:05:52;13.97;;;6.60;;
18867;SDS011;9563;49.240;9.088;2024-01-06T14:08:19;13.60;;;7.07;;
18867;SDS011;9563;49.240;9.088;2024-01-06T14:10:46;10.47;;;6.63;;
18867;SDS011;9563;49.240;9.088;2024-01-06T14:13:13;12.07;;;6.67;;
18867;SDS011;9563;49.240;9.088;2024-01-06T14:15:40;11.50;;;6.73;;
18867;SDS011;9563;49.240;9.088;2024-01-06T14:18:06;12.93;;;7.17;;
18867;SDS011;9563;49.240;9.088;2024-01-06T14:20:35;12.63;;;6.73;;
18867;SDS011;9563;49.240;9.088;2024-01-06T14:23:04;12.63;;;6.10;;
18867;SDS011;9563;49.240;9.088;2024-01-06T14:25:31;15.60;;;6.63;;
18867;SDS011;9563;49.240;9.088;2024-01-06T14:27:58;12.37;;;7.40;;
18867;SDS011;9563;49.240;9.088;2024-01-06T14:30:25;13.67;;;7.17;;
18867;SDS011;9563;49.240;9.088;2024-01-06T14:32:53;12.67;;;6.27;;
18867;SDS011;9563;49.240;9.088;2024-01-06T14:35:20;10.70;;;6.33;;
18867;SDS011;9563;49.240;9.088;2024-01-06T14:37:47;11.47;;;7.53;;
18867;SDS011;9563;49.240;9.088;2024-01-06T14:40:17;11.97;;;6.70;;
18867;SDS011;9563;49.240;9.088;2024-01-06T14:42:44;9.90;;;6.00;;
18867;SDS011;9563;49.240;9.088;2024-01-06T14:45:11;9.67;;;6.60;;
18867;SDS011;9563;49.240;9.088;2024-01-06T14:47:39;11.67;;;6.77;;
18867;SDS011;9563;49.240;9.088;2024-01-06T14:50:07;9.27;;;6.17;;
18867;SDS011;9563;49.240;9.088;2024-01-06T14:52:34;13.43;;;6.87;;
18867;SDS011;9563;49.240;9.088;2024-01-06T14:55:01;10.63;;;6.10;;
18867;SDS011;9563;49.240;9.088;2024-01-06T14:57:29;11.03;;;6.20;;
18867;SDS011;9563;49.240;9.088;2024-01-06T14:59:56;12.07;;;6.57;;
18867;SDS011;9563;49.240;9.088;2024-01-06T15:02:23;10.67;;;6.07;;
18867;SDS011;9563;49.240;9.088;2024-01-06T15:04:50;8.37;;;5.53;;
18867;SDS011;9563;49.240;9.088;2024-01-06T15:07:18;13.70;;;7.17;;
18867;SDS011;9563;49.240;9.088;2024-01-06T15:09:45;12.77;;;6.57;;
18867;SDS011;9563;49.240;9.088;2024-01-06T15:12:12;12.93;;;7.37;;
18867;SDS011;9563;49.240;9.088;2024-01-06T15:14:41;11.30;;;6.83;;
18867;SDS011;9563;49.240;9.088;2024-01-06T15:17:08;11.93;;;7.30;;
18867;SDS011;9563;49.240;9.088;2024-01-06T15:19:35;14.37;;;7.53;;
18867;SDS011;9563;49.240;9.088;2024-01-06T15:22:03;12.40;;;7.37;;
18867;SDS011;9563;49.240;9.088;2024-01-06T15:24:30;15.83;;;8.77;;
18867;SDS011;9563;49.240;9.088;2024-01-06T15:26:57;15.37;;;8.43;;
18867;SDS011;9563;49.240;9.088;2024-01-06T15:29:24;14.20;;;7.43;;
18867;SDS011;9563;49.240;9.088;2024-01-06T15:31:52;11.37;;;7.27;;
18867;SDS011;9563;49.240;9.088;2024-01-06T15:34:22;10.30;;;7.00;;
18867;SDS011;9563;49.240;9.088;2024-01-06T15:36:49;11.87;;;6.80;;
18867;SDS011;9563;49.240;9.088;2024-01-06T15:39:16;10.47;;;6.23;;
18867;SDS011;9563;49.240;9.088;2024-01-06T15:41:43;13.27;;;6.90;;
18867;SDS011;9563;49.240;9.088;2024-01-06T15:44:10;13.63;;;7.17;;
18867;SDS011;9563;49.240;9.088;2024-01-06T15:46:37;8.87;;;6.40;;
18867;SDS011;9563;49.240;9.088;2024-01-06T15:49:05;12.23;;;6.77;;
18867;SDS011;9563;49.240;9.088;2024-01-06T15:51:32;11.90;;;7.10;;
18867;SDS011;9563;49.240;9.088;2024-01-06T15:53:59;16.10;;;7.47;;
18867;SDS011;9563;49.240;9.088;2024-01-06T15:56:26;15.60;;;8.03;;
18867;SDS011;9563;49.240;9.088;2024-01-06T15:58:53;13.53;;;7.57;;
18867;SDS011;9563;49.240;9.088;2024-01-06T16:01:21;14.23;;;6.93;;
18867;SDS011;9563;49.240;9.088;2024-01-06T16:03:48;12.83;;;7.33;;
18867;SDS011;9563;49.240;9.088;2024-01-06T16:06:17;14.90;;;7.37;;
18867;SDS011;9563;49.240;9.088;2024-01-06T16:08:44;12.07;;;7.40;;
18867;SDS011;9563;49.240;9.088;2024-01-06T16:11:11;13.43;;;8.03;;
18867;SDS011;9563;49.240;9.088;2024-01-06T16:13:38;12.80;;;7.67;;
18867;SDS011;9563;49.240;9.088;2024-01-06T16:16:05;12.10;;;7.00;;
18867;SDS011;9563;49.240;9.088;2024-01-06T16:18:32;14.60;;;7.40;;
18867;SDS011;9563;49.240;9.088;2024-01-06T16:20:59;15.97;;;8.10;;
18867;SDS011;9563;49.240;9.088;2024-01-06T16:23:30;19.83;;;8.50;;
18867;SDS011;9563;49.240;9.088;2024-01-06T16:25:57;16.30;;;8.60;;
18867;SDS011;9563;49.240;9.088;2024-01-06T16:28:24;13.53;;;7.70;;
18867;SDS011;9563;49.240;9.088;2024-01-06T16:30:51;12.40;;;7.23;;
18867;SDS011;9563;49.240;9.088;2024-01-06T16:33:18;14.03;;;7.33;;
18867;SDS011;9563;49.240;9.088;2024-01-06T16:35:45;14.63;;;8.40;;
18867;SDS011;9563;49.240;9.088;2024-01-06T16:38:12;18.33;;;7.97;;
18867;SDS011;9563;49.240;9.088;2024-01-06T16:40:41;13.47;;;7.00;;
18867;SDS011;9563;49.240;9.088;2024-01-06T16:43:08;13.83;;;7.77;;
18867;SDS011;9563;49.240;9.088;2024-01-06T16:45:36;13.73;;;7.90;;
18867;SDS011;9563;49.240;9.088;2024-01-06T16:48:04;13.83;;;7.57;;
18867;SDS011;9563;49.240;9.088;2024-01-06T16:50:31;15.40;;;7.70;;
18867;SDS011;9563;49.240;9.088;2024-01-06T16:52:58;13.80;;;7.60;;
18867;SDS011;9563;49.240;9.088;2024-01-06T16:55:25;13.57;;;7.40;;
18867;SDS011;9563;49.240;9.088;2024-01-06T16:57:54;13.67;;;7.50;;
18867;SDS011;9563;49.240;9.088;2024-01-06T17:00:24;15.73;;;7.67;;
18867;SDS011;9563;49.240;9.088;2024-01-06T17:02:52;12.30;;;7.37;;
18867;SDS011;9563;49.240;9.088;2024-01-06T17:05:19;13.37;;;7.87;;
18867;SDS011;9563;49.240;9.088;2024-01-06T17:07:46;14.53;;;7.83;;
18867;SDS011;9563;49.240;9.088;2024-01-06T17:10:13;16.50;;;8.20;;
18867;SDS011;9563;49.240;9.088;2024-01-06T17:12:40;16.83;;;8.67;;
18867;SDS011;9563;49.240;9.088;2024-01-06T17:15:10;15.40;;;9.33;;
18867;SDS011;9563;49.240;9.088;2024-01-06T17:17:38;14.50;;;8.43;;
18867;SDS011;9563;49.240;9.088;2024-01-06T17:20:06;16.60;;;9.33;;
18867;SDS011;9563;49.240;9.088;2024-01-06T17:22:35;16.83;;;8.67;;
18867;SDS011;9563;49.240;9.088;2024-01-06T17:25:02;15.77;;;9.70;;
18867;SDS011;9563;49.240;9.088;2024-01-06T17:27:30;16.60;;;8.87;;
18867;SDS011;9563;49.240;9.088;2024-01-06T17:29:57;19.60;;;9.57;;
18867;SDS011;9563;49.240;9.088;2024-01-06T17:32:25;15.40;;;8.77;;
18867;SDS011;9563;49.240;9.088;2024-01-06T17:34:52;16.13;;;8.63;;
18867;SDS011;9563;49.240;9.088;2024-01-06T17:37:19;16.50;;;8.80;;
18867;SDS011;9563;49.240;9.088;2024-01-06T17:39:46;17.00;;;8.80;;
18867;SDS011;9563;49.240;9.088;2024-01-06T17:42:13;16.23;;;8.77;;
18867;SDS011;9563;49.240;9.088;2024-01-06T17:44:40;18.87;;;9.43;;
18867;SDS011;9563;49.240;9.088;2024-01-06T17:47:09;15.60;;;9.03;;
18867;SDS011;9563;49.240;9.088;2024-01-06T17:49:40;15.47;;;8.80;;
18867;SDS011;9563;49.240;9.088;2024-01-06T17:52:07;17.57;;;9.23;;
18867;SDS011;9563;49.240;9.088;2024-01-06T17:54:35;17.17;;;8.03;;
18867;SDS011;9563;49.240;9.088;2024-01-06T17:57:02;14.97;;;8.43;;
18867;SDS011;9563;49.240;9.088;2024-01-06T17:59:30;15.73;;;9.03;;
18867;SDS011;9563;49.240;9.088;2024-01-06T18:01:57;14.53;;;8.40;;
18867;SDS011;9563;49.240;9.088;2024-01-06T18:04:24;14.13;;;8.23;;
18867;SDS011;9563;49.240;9.088;2024-01-06T18:06:52;13.10;;;8.20;;
18867;SDS011;9563;49.240;9.088;2024-01-06T18:09:19;17.53;;;8.90;;
18867;SDS011;9563;49.240;9.088;2024-01-06T18:11:46;16.37;;;9.37;;
18867;SDS011;9563;49.240;9.088;2024-01-06T18:14:13;14.43;;;8.00;;
18867;SDS011;9563;49.240;9.088;2024-01-06T18:16:40;17.97;;;9.50;;
18867;SDS011;9563;49.240;9.088;2024-01-06T18:19:07;18.63;;;9.43;;
18867;SDS011;9563;49.240;9.088;2024-01-06T18:21:34;18.70;;;8.53;;
18867;SDS011;9563;49.240;9.088;2024-01-06T18:24:03;19.33;;;10.50;;
18867;SDS011;9563;49.240;9.088;2024-01-06T18:26:30;19.93;;;10.47;;
18867;SDS011;9563;49.240;9.088;2024-01-06T18:28:57;17.90;;;9.10;;
18867;SDS011;9563;49.240;9.088;2024-01-06T18:31:24;19.80;;;9.93;;
18867;SDS011;9563;49.240;9.088;2024-01-06T18:33:51;19.67;;;11.33;;
18867;SDS011;9563;49.240;9.088;2024-01-06T18:36:18;20.87;;;10.00;;
18867;SDS011;9563;49.240;9.088;2024-01-06T18:38:45;20.00;;;10.23;;
18867;SDS011;9563;49.240;9.088;2024-01-06T18:41:14;25.93;;;11.73;;
18867;SDS011;9563;49.240;9.088;2024-01-06T18:43:40;27.60;;;13.63;;
18867;SDS011;9563;49.240;9.088;2024-01-06T18:46:07;30.60;;;13.70;;
18867;SDS011;9563;49.240;9.088;2024-01-06T18:48:36;28.27;;;13.63;;
18867;SDS011;9563;49.240;9.088;2024-01-06T18:51:03;24.07;;;12.23;;
18867;SDS011;9563;49.240;9.088;2024-01-06T18:53:30;26.60;;;11.80;;
18867;SDS011;9563;49.240;9.088;2024-01-06T18:55:57;28.37;;;12.80;;
18867;SDS011;9563;49.240;9.088;2024-01-06T18:58:26;25.83;;;12.30;;
18867;SDS011;9563;49.240;9.088;2024-01-06T19:00:52;21.20;;;10.43;;
18867;SDS011;9563;49.240;9.088;2024-01-06T19:03:19;26.63;;;11.47;;
18867;SDS011;9563;49.240;9.088;2024-01-06T19:05:46;24.13;;;11.27;;
18867;SDS011;9563;49.240;9.088;2024-01-06T19:08:13;21.20;;;10.13;;
18867;SDS011;9563;49.240;9.088;2024-01-06T19:10:40;18.80;;;10.20;;
18867;SDS011;9563;49.240;9.088;2024-01-06T19:13:07;20.93;;;10.27;;
18867;SDS011;9563;49.240;9.088;2024-01-06T19:15:36;19.33;;;11.13;;
18867;SDS011;9563;49.240;9.088;2024-01-06T19:18:04;22.03;;;10.30;;
18867;SDS011;9563;49.240;9.088;2024-01-06T19:20:31;21.33;;;10.33;;
18867;SDS011;9563;49.240;9.088;2024-01-06T19:22:58;20.27;;;10.93;;
18867;SDS011;9563;49.240;9.088;2024-01-06T19:25:25;20.87;;;10.70;;
18867;SDS011;9563;49.240;9.088;2024-01-06T19:27:52;19.87;;;10.67;;
18867;SDS011;9563;49.240;9.088;2024-01-06T19:30:19;19.77;;;10.40;;
18867;SDS011;9563;49.240;9.088;2024-01-06T19:32:48;18.67;;;10.00;;
18867;SDS011;9563;49.240;9.088;2024-01-06T19:35:15;19.67;;;9.47;;
18867;SDS011;9563;49.240;9.088;2024-01-06T19:37:42;22.67;;;10.10;;
18867;SDS011;9563;49.240;9.088;2024-01-06T19:40:09;19.67;;;10.73;;
18867;SDS011;9563;49.240;9.088;2024-01-06T19:42:36;20.17;;;10.47;;
18867;SDS011;9563;49.240;9.088;2024-01-06T19:45:03;22.53;;;10.87;;
18867;SDS011;9563;49.240;9.088;2024-01-06T19:47:31;18.87;;;9.90;;
18867;SDS011;9563;49.240;9.088;2024-01-06T19:50:01;21.30;;;11.70;;
18867;SDS011;9563;49.240;9.088;2024-01-06T19:52:28;17.90;;;10.67;;